Jock — WDF2423 — position and weather

sailwx.info

Track history (hours):
 
Tides and Currents Weather Stations Pressure Air Temp Water Temp Dewpoint Dewpoint Depression Visibility Wind Speed Wind Dir Waves Ship Positions

Jock

Owner: Enterprise Marine Services, LLC, San Antonio, TX. More information available from US FCC via Universal Licensing System and Coast Guard Vessel Documentation Center.

Last reported at 2015-Feb-22 02:04 UTC. Time now 2015-Mar-03 11:10 UTC.
Position N 29°34' W 090°57'.
Warning: this ship's position is 9 days out of date.

Length 28 m.

Type: Other ship. MMSI: 367003460.

Date/timePositionNaut miles runAvg speedWind from/ knotsBaromVisibWave heightAir tempDewpointWater temp
2015-Feb-22 02:04N 29°34' W 090°57'6 5.8
2015-Feb-22 01:07N 29°37' W 091°02'3 6.0
2015-Feb-22 00:33N 29°38' W 091°06'5 4.8
2015-Feb-21 23:33N 29°41' W 091°11'5 5.4
2015-Feb-21 22:33N 29°39' W 091°16'2 2.1
2015-Feb-21 21:33N 29°39' W 091°19'0 0.0
2015-Feb-21 20:33N 29°39' W 091°19'0 0.0
2015-Feb-21 19:33N 29°39' W 091°19'0 0.4
2015-Feb-21 18:33N 29°38' W 091°19'  
2015-Feb-12 09:18N 29°23' W 094°53'0 0.0
2015-Feb-12 08:30N 29°23' W 094°53'0 0.0
2015-Feb-12 07:33N 29°23' W 094°53'0 0.0
2015-Feb-12 06:33N 29°23' W 094°53'0 0.0
2015-Feb-12 05:33N 29°23' W 094°53'0 0.0
2015-Feb-12 04:33N 29°23' W 094°53'0 0.0
2015-Feb-12 03:33N 29°23' W 094°53'0 0.0
2015-Feb-12 02:33N 29°23' W 094°53'  
Track history (hours):
 
Tides and Currents Weather Stations Pressure Air Temp Water Temp Dewpoint Dewpoint Depression Visibility Wind Speed Wind Dir Waves Ship Positions

Jock

Owner: Enterprise Marine Services, LLC, San Antonio, TX. More information available from US FCC via Universal Licensing System and Coast Guard Vessel Documentation Center.

Last reported at 2015-Feb-22 02:04 UTC. Time now 2015-Mar-03 11:10 UTC.
Position N 29°34' W 090°57'.
Warning: this ship's position is 9 days out of date.

Length 28 m.

Type: Other ship. MMSI: 367003460.

Date/timePositionNaut miles runAvg speedWind from/ knotsBaromVisibWave heightAir tempDewpointWater temp
2015-Feb-22 02:04N 29°34' W 090°57'6 5.8
2015-Feb-22 01:07N 29°37' W 091°02'3 6.0
2015-Feb-22 00:33N 29°38' W 091°06'5 4.8
2015-Feb-21 23:33N 29°41' W 091°11'5 5.4
2015-Feb-21 22:33N 29°39' W 091°16'2 2.1
2015-Feb-21 21:33N 29°39' W 091°19'0 0.0
2015-Feb-21 20:33N 29°39' W 091°19'0 0.0
2015-Feb-21 19:33N 29°39' W 091°19'0 0.4
2015-Feb-21 18:33N 29°38' W 091°19'  
2015-Feb-12 09:18N 29°23' W 094°53'0 0.0
2015-Feb-12 08:30N 29°23' W 094°53'0 0.0
2015-Feb-12 07:33N 29°23' W 094°53'0 0.0
2015-Feb-12 06:33N 29°23' W 094°53'0 0.0
2015-Feb-12 05:33N 29°23' W 094°53'0 0.0
2015-Feb-12 04:33N 29°23' W 094°53'0 0.0
2015-Feb-12 03:33N 29°23' W 094°53'0 0.0
2015-Feb-12 02:33N 29°23' W 094°53'  

Dump ship's entire track history